createdAt,value
2018-09-08T00:00:34.900Z,101218.11
2018-09-08T00:01:40.347Z,101218.08
2018-09-08T00:02:45.813Z,101222.28
2018-09-08T00:03:51.276Z,101221.80
2018-09-08T00:04:56.720Z,101220.20
2018-09-08T00:06:02.247Z,101220.09
2018-09-08T00:07:13.084Z,101224.27
2018-09-08T00:08:18.494Z,101225.09
2018-09-08T00:09:23.884Z,101229.79
2018-09-08T00:10:29.353Z,101231.14
2018-09-08T00:11:34.871Z,101234.59
2018-09-08T00:12:40.398Z,101240.95
2018-09-08T00:13:46.101Z,101234.94
2018-09-08T00:14:50.532Z,101232.09
2018-09-08T00:16:01.172Z,101231.19
2018-09-08T00:17:11.845Z,101229.41
2018-09-08T00:18:22.633Z,101222.94
2018-09-08T00:19:33.322Z,101229.69
2018-09-08T00:20:44.031Z,101224.87
2018-09-08T00:21:54.432Z,101227.89
2018-09-08T00:23:04.873Z,101219.34
2018-09-08T00:24:15.480Z,101225.00
2018-09-08T00:25:26.026Z,101223.65
2018-09-08T00:26:34.237Z,101209.16
2018-09-08T00:27:45.678Z,101214.30
2018-09-08T00:28:55.533Z,101217.36
2018-09-08T00:30:05.080Z,101223.37
2018-09-08T00:31:14.514Z,101219.62
2018-09-08T00:32:24.436Z,101217.70
2018-09-08T00:33:29.828Z,101219.99
2018-09-08T00:34:35.402Z,101218.25
2018-09-08T00:35:40.821Z,101221.28
2018-09-08T00:36:46.293Z,101226.87
2018-09-08T00:37:51.699Z,101224.81
2018-09-08T00:38:57.196Z,101219.84
2018-09-08T00:40:03.082Z,101224.47
2018-09-08T00:41:08.811Z,101228.26
2018-09-08T00:42:14.252Z,101221.83
2018-09-08T00:43:19.721Z,101221.80
2018-09-08T00:44:25.430Z,101220.52
2018-09-08T00:45:30.853Z,101213.67
2018-09-08T00:46:36.744Z,101217.88
2018-09-08T00:47:42.209Z,101218.33
2018-09-08T00:48:47.705Z,101215.98
2018-09-08T00:49:53.129Z,101215.09
2018-09-08T00:50:58.563Z,101215.02
2018-09-08T00:52:03.998Z,101209.87
2018-09-08T00:53:09.397Z,101213.73
2018-09-08T00:54:14.832Z,101215.47
2018-09-08T00:55:20.313Z,101222.66
2018-09-08T00:56:25.748Z,101222.59
2018-09-08T00:57:31.196Z,101225.14
2018-09-08T00:58:36.793Z,101227.13
2018-09-08T00:59:42.325Z,101224.03
2018-09-08T01:00:47.788Z,101226.60
2018-09-08T01:01:53.212Z,101218.37
2018-09-08T01:02:58.634Z,101217.36
2018-09-08T01:04:04.133Z,101221.56
2018-09-08T01:05:09.753Z,101227.48
2018-09-08T01:06:15.279Z,101227.16
2018-09-08T01:07:26.058Z,101218.09
2018-09-08T01:08:31.578Z,101220.66
2018-09-08T01:09:37.037Z,101224.03
2018-09-08T01:10:42.490Z,101222.71
2018-09-08T01:11:47.905Z,101228.62
2018-09-08T01:12:53.388Z,101226.88
2018-09-08T01:13:58.925Z,101229.11
2018-09-08T01:15:04.553Z,101224.83
2018-09-08T01:16:10.073Z,101233.84
2018-09-08T01:17:15.504Z,101225.88
2018-09-08T01:18:20.934Z,101231.47
2018-09-08T01:19:26.321Z,101231.58
2018-09-08T01:20:31.776Z,101226.56
2018-09-08T01:21:37.392Z,101230.45
2018-09-08T01:22:42.918Z,101225.80
2018-09-08T01:23:52.683Z,101226.98
2018-09-08T01:24:58.157Z,101225.35
2018-09-08T01:26:03.852Z,101225.84
2018-09-08T01:27:09.394Z,101227.95
2018-09-08T01:28:14.833Z,101224.59
2018-09-08T01:29:20.308Z,101230.56
2018-09-08T01:30:25.816Z,101235.73
2018-09-08T01:31:31.318Z,101229.31
2018-09-08T01:32:36.794Z,101233.62
2018-09-08T01:33:42.289Z,101243.52
2018-09-08T01:34:47.702Z,101235.32
2018-09-08T01:35:53.188Z,101239.70
2018-09-08T01:36:58.624Z,101237.96
2018-09-08T01:38:04.076Z,101237.92
2018-09-08T01:39:09.608Z,101235.42
2018-09-08T01:40:15.153Z,101234.23
2018-09-08T01:41:20.592Z,101236.25
2018-09-08T01:42:26.198Z,101231.98
2018-09-08T01:43:31.621Z,101234.97
2018-09-08T01:44:37.054Z,101237.99
2018-09-08T01:45:42.520Z,101234.97
2018-09-08T01:46:47.977Z,101234.23
2018-09-08T01:47:53.458Z,101236.39
2018-09-08T01:48:58.860Z,101239.38
2018-09-08T01:50:04.524Z,101243.27
2018-09-08T01:51:09.905Z,101242.02
2018-09-08T01:52:15.371Z,101241.95
2018-09-08T01:53:20.813Z,101242.82
2018-09-08T01:54:26.217Z,101240.25
2018-09-08T01:55:31.678Z,101245.88
2018-09-08T01:56:37.100Z,101241.18
2018-09-08T01:57:42.521Z,101237.67
2018-09-08T01:58:48.280Z,101242.98
2018-09-08T01:59:54.088Z,101242.88
2018-09-08T02:00:59.516Z,101246.73
2018-09-08T02:02:05.087Z,101243.30
2018-09-08T02:03:10.468Z,101245.91
2018-09-08T02:04:15.889Z,101245.84
2018-09-08T02:05:21.304Z,101250.63
2018-09-08T02:06:26.698Z,101239.93
2018-09-08T02:07:32.224Z,101248.47
2018-09-08T02:08:37.633Z,101243.75
2018-09-08T02:09:43.139Z,101242.11
2018-09-08T02:10:48.613Z,101243.84
2018-09-08T02:11:54.010Z,101241.02
2018-09-08T02:12:59.447Z,101240.16
2018-09-08T02:14:04.958Z,101232.80
2018-09-08T02:15:10.412Z,101237.94
2018-09-08T02:16:15.804Z,101237.62
2018-09-08T02:17:21.266Z,101238.42
2018-09-08T02:18:26.784Z,101234.59
2018-09-08T02:19:32.250Z,101235.53
2018-09-08T02:20:37.656Z,101234.73
2018-09-08T02:21:43.096Z,101239.77
2018-09-08T02:22:48.516Z,101239.67
2018-09-08T02:23:53.912Z,101236.69
2018-09-08T02:24:59.312Z,101237.65
2018-09-08T02:26:04.769Z,101247.00
2018-09-08T02:27:10.361Z,101241.41
2018-09-08T02:28:15.755Z,101247.67
2018-09-08T02:29:21.156Z,101248.19
2018-09-08T02:30:26.829Z,101246.00
2018-09-08T02:31:32.296Z,101243.08
2018-09-08T02:32:37.729Z,101243.02
2018-09-08T02:33:43.164Z,101246.73
2018-09-08T02:34:48.560Z,101245.45
2018-09-08T02:35:54.107Z,101245.06
2018-09-08T02:36:59.541Z,101250.05
2018-09-08T02:38:05.029Z,101253.42
2018-09-08T02:39:11.007Z,101252.94
2018-09-08T02:40:16.374Z,101251.58
2018-09-08T02:41:21.764Z,101251.91
2018-09-08T02:42:27.366Z,101254.37
2018-09-08T02:43:32.740Z,101253.85
2018-09-08T02:44:38.297Z,101261.05
2018-09-08T02:45:43.697Z,101254.20
2018-09-08T02:46:49.149Z,101254.97
2018-09-08T02:47:54.600Z,101255.28
2018-09-08T02:49:00.057Z,101257.34
2018-09-08T02:50:34.867Z,101257.69
2018-09-08T02:51:38.493Z,101261.92
2018-09-08T02:52:42.117Z,101257.20
2018-09-08T02:53:45.813Z,101263.94
2018-09-08T02:54:49.456Z,101262.62
2018-09-08T02:55:53.093Z,101264.74
2018-09-08T02:56:56.712Z,101259.48
2018-09-08T02:58:00.650Z,101267.55
2018-09-08T02:59:04.303Z,101263.24
2018-09-08T03:00:07.984Z,101266.65
2018-09-08T03:01:11.620Z,101270.92
2018-09-08T03:02:16.232Z,101269.88
2018-09-08T03:03:19.873Z,101269.98
2018-09-08T03:04:23.531Z,101265.64
2018-09-08T03:05:27.209Z,101269.73
2018-09-08T03:06:30.846Z,101273.91
2018-09-08T03:07:34.469Z,101266.14
2018-09-08T03:08:38.102Z,101271.33
2018-09-08T03:09:44.180Z,101269.14
2018-09-08T03:10:48.013Z,101272.55
2018-09-08T03:11:51.672Z,101261.52
2018-09-08T03:12:55.301Z,101269.70
2018-09-08T03:13:58.925Z,101269.14
2018-09-08T03:15:02.557Z,101264.41
2018-09-08T03:16:06.417Z,101266.91
2018-09-08T03:17:10.049Z,101270.23
2018-09-08T03:18:13.720Z,101273.72
2018-09-08T03:19:17.353Z,101281.72
2018-09-08T03:20:21.002Z,101278.38
2018-09-08T03:21:24.706Z,101278.34
2018-09-08T03:22:28.377Z,101277.86
2018-09-08T03:23:32.019Z,101273.47
2018-09-08T03:24:35.654Z,101276.91
2018-09-08T03:25:39.322Z,101275.20
2018-09-08T03:26:42.988Z,101277.78
2018-09-08T03:27:46.673Z,101274.86
2018-09-08T03:28:50.315Z,101273.09
2018-09-08T03:29:53.957Z,101271.31
2018-09-08T03:30:57.580Z,101275.48
2018-09-08T03:32:01.214Z,101280.05
2018-09-08T03:33:04.881Z,101279.67
2018-09-08T03:34:08.554Z,101284.44
2018-09-08T03:35:12.184Z,101293.38
2018-09-08T03:36:15.801Z,101286.97
2018-09-08T03:37:19.431Z,101287.54
2018-09-08T03:38:23.129Z,101286.63
2018-09-08T03:39:26.776Z,101292.66
2018-09-08T03:40:30.400Z,101295.05
2018-09-08T03:41:34.578Z,101293.72
2018-09-08T03:42:38.210Z,101295.88
2018-09-08T03:43:41.920Z,101292.55
2018-09-08T03:44:45.551Z,101299.36
2018-09-08T03:45:49.221Z,101301.03
2018-09-08T03:46:52.857Z,101301.89
2018-09-08T03:47:56.484Z,101298.03
2018-09-08T03:49:00.169Z,101301.75
2018-09-08T03:50:03.812Z,101306.10
2018-09-08T03:51:07.470Z,101309.93
2018-09-08T03:52:11.119Z,101306.00
2018-09-08T03:53:14.754Z,101308.61
2018-09-08T03:54:18.401Z,101306.06
2018-09-08T03:55:22.061Z,101307.02
2018-09-08T03:56:25.692Z,101303.53
2018-09-08T03:57:29.326Z,101300.88
2018-09-08T03:58:32.940Z,101302.42
2018-09-08T03:59:36.565Z,101305.48
2018-09-08T04:00:40.233Z,101305.00
2018-09-08T04:01:43.893Z,101304.51
2018-09-08T04:02:49.312Z,101304.09
2018-09-08T04:03:54.694Z,101308.52
2018-09-08T04:05:00.186Z,101307.13
2018-09-08T04:06:05.640Z,101313.97
2018-09-08T04:07:11.160Z,101313.45
2018-09-08T04:08:16.556Z,101319.78
2018-09-08T04:09:22.019Z,101313.45
2018-09-08T04:10:27.431Z,101306.05
2018-09-08T04:11:32.876Z,101314.57
2018-09-08T04:12:38.340Z,101308.89
2018-09-08T04:13:43.950Z,101315.37
2018-09-08T04:14:49.337Z,101311.99
2018-09-08T04:15:54.741Z,101316.77
2018-09-08T04:17:00.404Z,101319.30
2018-09-08T04:18:05.873Z,101315.96
2018-09-08T04:19:11.332Z,101323.69
2018-09-08T04:20:16.760Z,101321.84
2018-09-08T04:21:22.261Z,101324.59
2018-09-08T04:22:33.160Z,101328.30
2018-09-08T04:23:38.697Z,101316.83
2018-09-08T04:24:45.641Z,101325.06
2018-09-08T04:25:51.049Z,101322.06
2018-09-08T04:26:56.577Z,101321.75
2018-09-08T04:28:02.069Z,101318.41
2018-09-08T04:29:07.504Z,101318.16
2018-09-08T04:30:13.064Z,101323.84
2018-09-08T04:31:18.513Z,101327.34
2018-09-08T04:32:23.969Z,101326.87
2018-09-08T04:33:29.528Z,101325.70
2018-09-08T04:34:34.980Z,101333.84
2018-09-08T04:35:40.484Z,101328.31
2018-09-08T04:36:45.996Z,101332.27
2018-09-08T04:37:51.393Z,101330.20
2018-09-08T04:38:56.869Z,101328.53
2018-09-08T04:40:02.276Z,101332.03
2018-09-08T04:41:07.826Z,101329.17
2018-09-08T04:42:13.168Z,101335.75
2018-09-08T04:43:18.661Z,101333.69
2018-09-08T04:44:24.105Z,101336.28
2018-09-08T04:45:29.545Z,101336.28
2018-09-08T04:46:35.238Z,101336.67
2018-09-08T04:47:40.793Z,101338.44
2018-09-08T04:48:46.216Z,101337.59
2018-09-08T04:49:51.948Z,101341.42
2018-09-08T04:50:57.409Z,101341.54
2018-09-08T04:52:02.870Z,101342.05
2018-09-08T04:53:08.336Z,101346.38
2018-09-08T04:54:13.800Z,101344.34
2018-09-08T04:55:19.216Z,101345.63
2018-09-08T04:56:24.660Z,101341.92
2018-09-08T04:57:30.141Z,101345.86
2018-09-08T04:58:35.606Z,101348.91
2018-09-08T04:59:41.021Z,101346.25
2018-09-08T05:00:46.457Z,101345.27
2018-09-08T05:01:51.889Z,101342.70
2018-09-08T05:02:57.314Z,101346.22
2018-09-08T05:04:02.810Z,101348.38
2018-09-08T05:05:08.437Z,101349.63
2018-09-08T05:06:13.840Z,101349.27
2018-09-08T05:07:19.306Z,101347.65
2018-09-08T05:08:24.760Z,101346.81
2018-09-08T05:09:30.212Z,101359.37
2018-09-08T05:10:35.666Z,101353.77
2018-09-08T05:11:41.153Z,101355.80
2018-09-08T05:12:46.542Z,101355.75
2018-09-08T05:13:52.014Z,101352.34
2018-09-08T05:14:57.792Z,101358.38
2018-09-08T05:16:03.293Z,101352.84
2018-09-08T05:17:08.770Z,101355.80
2018-09-08T05:18:14.316Z,101360.19
2018-09-08T05:19:19.809Z,101357.59
2018-09-08T05:20:25.330Z,101358.56
2018-09-08T05:21:30.786Z,101358.90
2018-09-08T05:22:36.224Z,101356.33
2018-09-08T05:23:41.655Z,101364.41
2018-09-08T05:24:47.044Z,101364.03
2018-09-08T05:25:52.633Z,101369.48
2018-09-08T05:26:58.086Z,101369.85
2018-09-08T05:28:03.654Z,101366.47
2018-09-08T05:29:09.132Z,101369.45
2018-09-08T05:30:14.623Z,101367.36
2018-09-08T05:31:20.024Z,101368.62
2018-09-08T05:32:25.461Z,101366.36
2018-09-08T05:33:31.005Z,101370.33
2018-09-08T05:34:36.723Z,101370.73
2018-09-08T05:35:42.141Z,101367.36
2018-09-08T05:36:47.549Z,101369.85
2018-09-08T05:37:53.044Z,101367.67
2018-09-08T05:38:58.448Z,101372.39
2018-09-08T05:40:03.972Z,101369.34
2018-09-08T05:41:09.386Z,101370.27
2018-09-08T05:42:14.918Z,101370.61
2018-09-08T05:43:20.356Z,101373.03
2018-09-08T05:44:25.802Z,101374.67
2018-09-08T05:45:31.280Z,101375.07
2018-09-08T05:46:36.805Z,101377.22
2018-09-08T05:47:42.269Z,101387.05
2018-09-08T05:48:47.748Z,101377.69
2018-09-08T05:49:53.120Z,101379.81
2018-09-08T05:50:58.624Z,101379.34
2018-09-08T05:52:04.227Z,101375.85
2018-09-08T05:53:09.710Z,101383.56
2018-09-08T05:54:15.224Z,101377.52
2018-09-08T05:55:20.640Z,101378.27
2018-09-08T05:56:26.145Z,101382.55
2018-09-08T05:57:31.600Z,101387.24
2018-09-08T05:58:37.041Z,101387.52
2018-09-08T05:59:42.437Z,101389.22
2018-09-08T06:00:47.848Z,101388.66
2018-09-08T06:01:53.297Z,101389.94
2018-09-08T06:02:58.739Z,101394.97
2018-09-08T06:04:04.161Z,101394.97
2018-09-08T06:05:09.765Z,101397.87
2018-09-08T06:06:15.173Z,101394.37
2018-09-08T06:07:20.611Z,101401.70
2018-09-08T06:08:26.033Z,101404.30
2018-09-08T06:09:32.820Z,101404.69
2018-09-08T06:10:38.261Z,101396.46
2018-09-08T06:11:43.700Z,101394.63
2018-09-08T06:12:49.104Z,101394.55
2018-09-08T06:13:54.570Z,101395.50
2018-09-08T06:15:00.067Z,101403.64
2018-09-08T06:16:05.654Z,101402.23
2018-09-08T06:17:11.137Z,101403.81
2018-09-08T06:18:16.629Z,101396.00
2018-09-08T06:19:22.105Z,101400.18
2018-09-08T06:20:27.537Z,101400.59
2018-09-08T06:21:32.958Z,101406.20
2018-09-08T06:22:38.476Z,101399.77
2018-09-08T06:23:44.212Z,101397.45
2018-09-08T06:24:49.613Z,101397.74
2018-09-08T06:25:55.065Z,101398.03
2018-09-08T06:27:00.490Z,101403.05
2018-09-08T06:28:06.090Z,101400.86
2018-09-08T06:29:11.475Z,101403.05
2018-09-08T06:30:16.901Z,101402.63
2018-09-08T06:31:22.505Z,101403.84
2018-09-08T06:32:28.027Z,101404.14
2018-09-08T06:33:33.685Z,101402.27
2018-09-08T06:34:39.296Z,101410.72
2018-09-08T06:35:44.889Z,101407.31
2018-09-08T06:36:50.769Z,101411.17
2018-09-08T06:37:56.390Z,101414.91
2018-09-08T06:39:01.971Z,101410.07
2018-09-08T06:40:08.269Z,101411.61
2018-09-08T06:41:13.804Z,101415.72
2018-09-08T06:42:19.401Z,101413.97
2018-09-08T06:43:24.924Z,101418.64
2018-09-08T06:44:30.333Z,101425.95
2018-09-08T06:45:35.921Z,101427.06
2018-09-08T06:46:41.821Z,101428.55
2018-09-08T06:47:47.282Z,101426.70
2018-09-08T06:48:52.768Z,101426.91
2018-09-08T06:49:58.313Z,101420.92
2018-09-08T06:51:03.966Z,101426.84
2018-09-08T06:52:09.745Z,101429.61
2018-09-08T06:53:15.274Z,101421.84
2018-09-08T06:54:20.834Z,101421.28
2018-09-08T06:55:26.412Z,101427.58
2018-09-08T06:56:31.997Z,101430.03
2018-09-08T06:57:37.568Z,101423.98
2018-09-08T06:58:43.268Z,101424.28
2018-09-08T06:59:48.687Z,101432.36
2018-09-08T07:00:54.159Z,101431.25
2018-09-08T07:01:59.616Z,101429.77
2018-09-08T07:03:05.106Z,101433.72
2018-09-08T07:04:10.547Z,101434.66
2018-09-08T07:05:16.004Z,101432.47
2018-09-08T07:06:21.416Z,101431.06
2018-09-08T07:07:27.122Z,101429.23
2018-09-08T07:08:32.753Z,101436.18
2018-09-08T07:09:38.337Z,101438.80
2018-09-08T07:10:44.192Z,101434.81
2018-09-08T07:11:49.927Z,101436.10
2018-09-08T07:12:55.685Z,101438.30
2018-09-08T07:14:01.189Z,101440.09
2018-09-08T07:15:07.288Z,101438.00
2018-09-08T07:16:12.799Z,101434.58
2018-09-08T07:17:18.520Z,101435.14
2018-09-08T07:18:24.344Z,101437.44
2018-09-08T07:19:29.932Z,101432.91
2018-09-08T07:20:35.447Z,101434.24
2018-09-08T07:21:41.053Z,101438.28
2018-09-08T07:22:46.533Z,101432.79
2018-09-08T07:23:52.096Z,101440.28
2018-09-08T07:24:57.790Z,101440.61
2018-09-08T07:26:03.776Z,101445.03
2018-09-08T07:27:09.297Z,101441.81
2018-09-08T07:28:14.869Z,101440.81
2018-09-08T07:29:20.520Z,101440.64
2018-09-08T07:30:26.128Z,101439.43
2018-09-08T07:31:31.913Z,101441.83
2018-09-08T07:32:37.505Z,101442.77
2018-09-08T07:33:43.206Z,101443.71
2018-09-08T07:34:48.786Z,101445.16
2018-09-08T07:35:54.428Z,101441.89
2018-09-08T07:37:00.311Z,101442.02
2018-09-08T07:38:06.622Z,101442.48
2018-09-08T07:39:12.414Z,101449.87
2018-09-08T07:40:17.959Z,101446.45
2018-09-08T07:41:23.686Z,101456.05
2018-09-08T07:42:29.418Z,101451.11
2018-09-08T07:43:35.242Z,101449.12
2018-09-08T07:44:40.884Z,101446.55
2018-09-08T07:45:46.480Z,101442.44
2018-09-08T07:46:52.044Z,101446.14
2018-09-08T07:47:57.634Z,101448.16
2018-09-08T07:49:03.057Z,101448.43
2018-09-08T07:50:08.560Z,101445.64
2018-09-08T07:51:14.040Z,101452.16
2018-09-08T07:52:19.719Z,101448.23
2018-09-08T07:53:25.528Z,101451.42
2018-09-08T07:54:31.099Z,101457.69
2018-09-08T07:55:36.858Z,101454.02
2018-09-08T07:56:42.434Z,101455.58
2018-09-08T07:57:48.065Z,101459.77
2018-09-08T07:58:53.684Z,101458.88
2018-09-08T07:59:59.249Z,101461.50
2018-09-08T08:01:05.046Z,101456.59
2018-09-08T08:02:10.560Z,101457.30
2018-09-08T08:03:16.225Z,101458.34
2018-09-08T08:04:22.294Z,101461.11
2018-09-08T08:05:27.837Z,101457.13
2018-09-08T08:06:33.519Z,101463.83
2018-09-08T08:07:39.170Z,101460.42
2018-09-08T08:08:44.928Z,101457.61
2018-09-08T08:09:50.462Z,101457.83
2018-09-08T08:10:56.086Z,101454.59
2018-09-08T08:12:01.725Z,101458.74
2018-09-08T08:13:07.369Z,101452.96
2018-09-08T08:14:12.934Z,101456.50
2018-09-08T08:15:18.412Z,101452.17
2018-09-08T08:16:23.833Z,101457.97
2018-09-08T08:17:29.259Z,101461.39
2018-09-08T08:18:34.770Z,101467.02
2018-09-08T08:19:40.216Z,101460.31
2018-09-08T08:20:45.648Z,101464.98
2018-09-08T08:21:51.545Z,101466.67
2018-09-08T08:22:56.994Z,101471.47
2018-09-08T08:24:02.385Z,101464.37
2018-09-08T08:25:07.901Z,101466.86
2018-09-08T08:26:13.338Z,101472.09
2018-09-08T08:27:18.849Z,101464.73
2018-09-08T08:28:24.333Z,101471.74
2018-09-08T08:29:30.062Z,101470.34
2018-09-08T08:30:35.587Z,101477.92
2018-09-08T08:31:41.024Z,101473.42
2018-09-08T08:32:46.620Z,101478.19
2018-09-08T08:33:52.109Z,101467.94
2018-09-08T08:34:57.500Z,101473.22
2018-09-08T08:36:03.015Z,101472.42
2018-09-08T08:37:08.488Z,101473.19
2018-09-08T08:38:14.021Z,101474.83
2018-09-08T08:39:19.459Z,101477.16
2018-09-08T08:40:25.069Z,101481.91
2018-09-08T08:41:30.476Z,101475.20
2018-09-08T08:42:35.952Z,101469.93
2018-09-08T08:43:41.485Z,101476.03
2018-09-08T08:44:46.965Z,101476.30
2018-09-08T08:45:52.432Z,101479.59
2018-09-08T08:46:57.959Z,101480.81
2018-09-08T08:48:03.408Z,101484.36
2018-09-08T08:49:09.010Z,101482.48
2018-09-08T08:50:31.160Z,101489.02
2018-09-08T08:52:52.316Z,101488.19
2018-09-08T08:54:14.150Z,101495.11
2018-09-08T08:55:19.623Z,101500.17
2018-09-08T08:56:25.029Z,101496.24
2018-09-08T08:57:30.575Z,101499.30
2018-09-08T08:58:35.993Z,101496.34
2018-09-08T08:59:42.078Z,101492.52
2018-09-08T09:00:47.493Z,101497.45
2018-09-08T09:01:52.872Z,101497.63
2018-09-08T09:02:58.305Z,101501.36
2018-09-08T09:04:03.692Z,101499.12
2018-09-08T09:05:09.564Z,101502.53
2018-09-08T09:06:15.090Z,101502.75
2018-09-08T09:07:20.481Z,101500.04
2018-09-08T09:08:26.343Z,101502.00
2018-09-08T09:09:31.337Z,101505.88
2018-09-08T09:10:36.761Z,101504.91
2018-09-08T09:11:42.645Z,101497.91
2018-09-08T09:12:48.116Z,101502.90
2018-09-08T09:13:53.556Z,101501.48
2018-09-08T09:14:59.004Z,101498.36
2018-09-08T09:16:04.621Z,101504.16
2018-09-08T09:17:10.058Z,101511.19
2018-09-08T09:19:36.229Z,101504.70
2018-09-08T09:21:55.957Z,101507.58
2018-09-08T09:23:18.480Z,101507.80
2018-09-08T09:25:27.156Z,101519.14
2018-09-08T09:26:32.618Z,101512.11
2018-09-08T09:27:46.048Z,101509.57
2018-09-08T09:28:51.557Z,101508.89
2018-09-08T09:29:57.271Z,101513.30
2018-09-08T09:31:02.752Z,101511.39
2018-09-08T09:32:08.224Z,101507.05
2018-09-08T09:33:13.660Z,101508.74
2018-09-08T09:34:19.072Z,101506.03
2018-09-08T09:35:24.516Z,101510.11
2018-09-08T09:36:29.916Z,101507.03
2018-09-08T09:37:35.381Z,101508.81
2018-09-08T09:38:40.768Z,101507.92
2018-09-08T09:39:46.486Z,101511.77
2018-09-08T09:40:52.026Z,101510.25
2018-09-08T09:41:57.424Z,101509.42
2018-09-08T09:43:02.921Z,101512.09
2018-09-08T09:44:08.604Z,101509.03
2018-09-08T09:45:14.071Z,101515.00
2018-09-08T09:46:19.522Z,101514.31
2018-09-08T09:47:24.960Z,101516.91
2018-09-08T09:48:30.479Z,101520.06
2018-09-08T09:49:36.183Z,101513.70
2018-09-08T09:50:41.629Z,101519.82
2018-09-08T09:51:47.044Z,101515.98
2018-09-08T09:52:52.514Z,101512.55
2018-09-08T09:53:58.057Z,101517.15
2018-09-08T09:55:03.610Z,101505.52
2018-09-08T09:56:09.079Z,101507.95
2018-09-08T09:57:14.976Z,101502.06
2018-09-08T09:58:20.896Z,101500.76
2018-09-08T09:59:26.333Z,101510.48
2018-09-08T10:00:36.891Z,101505.42
2018-09-08T10:02:47.438Z,101502.67
2018-09-08T10:03:52.920Z,101505.27
2018-09-08T10:04:58.353Z,101506.87
2018-09-08T10:06:03.798Z,101506.03
2018-09-08T10:07:09.919Z,101499.53
2018-09-08T10:08:15.404Z,101498.08
2018-09-08T10:09:20.918Z,101499.17
2018-09-08T10:10:27.932Z,101504.05
2018-09-08T10:11:33.417Z,101502.27
2018-09-08T10:12:39.419Z,101498.84
2018-09-08T10:13:44.877Z,101494.39
2018-09-08T10:14:50.433Z,101500.20
2018-09-08T10:15:55.946Z,101498.92
2018-09-08T10:17:01.444Z,101505.05
2018-09-08T10:18:06.953Z,101495.39
2018-09-08T10:19:12.788Z,101501.66
2018-09-08T10:20:19.711Z,101504.98
2018-09-08T10:21:25.266Z,101498.55
2018-09-08T10:22:30.693Z,101498.42
2018-09-08T10:23:36.313Z,101500.45
2018-09-08T10:24:41.808Z,101500.92
2018-09-08T10:25:47.733Z,101505.38
2018-09-08T10:26:53.215Z,101502.54
2018-09-08T10:27:58.637Z,101507.93
2018-09-08T10:29:04.328Z,101506.88
2018-09-08T10:30:10.822Z,101502.67
2018-09-08T10:31:16.665Z,101498.08
2018-09-08T10:32:22.358Z,101499.52
2018-09-08T10:33:27.830Z,101494.32
2018-09-08T10:34:33.311Z,101502.81
2018-09-08T10:35:38.745Z,101498.36
2018-09-08T10:36:44.240Z,101501.58
2018-09-08T10:37:49.630Z,101499.52
2018-09-08T10:38:55.077Z,101497.47
2018-09-08T10:40:00.714Z,101506.72
2018-09-08T10:41:06.557Z,101496.42
2018-09-08T10:42:12.086Z,101501.45
2018-09-08T10:43:17.947Z,101499.88
2018-09-08T10:44:23.441Z,101505.47
2018-09-08T10:45:29.268Z,101509.69
2018-09-08T10:46:34.788Z,101505.78
2018-09-08T10:47:40.469Z,101509.39
2018-09-08T10:48:45.881Z,101505.78
2018-09-08T10:49:51.275Z,101507.95
2018-09-08T10:50:56.813Z,101508.02
2018-09-08T10:52:19.552Z,101514.59
2018-09-08T10:53:25.017Z,101515.14
2018-09-08T10:54:30.446Z,101513.58
2018-09-08T10:55:35.826Z,101513.98
2018-09-08T10:56:41.379Z,101509.86
2018-09-08T10:57:46.753Z,101507.21
2018-09-08T10:58:52.192Z,101504.30
2018-09-08T10:59:57.993Z,101506.78
2018-09-08T11:01:03.461Z,101505.19
2018-09-08T11:02:09.252Z,101506.59
2018-09-08T11:03:14.449Z,101502.95
2018-09-08T11:04:19.858Z,101500.20
2018-09-08T11:05:25.293Z,101506.88
2018-09-08T11:06:30.669Z,101510.72
2018-09-08T11:07:36.105Z,101501.43
2018-09-08T11:08:41.625Z,101503.20
2018-09-08T11:09:47.101Z,101500.24
2018-09-08T11:10:52.605Z,101504.98
2018-09-08T11:11:58.027Z,101509.72
2018-09-08T11:13:03.507Z,101506.99
2018-09-08T11:14:09.001Z,101511.17
2018-09-08T11:15:14.605Z,101506.95
2018-09-08T11:16:20.089Z,101500.88
2018-09-08T11:17:25.643Z,101508.66
2018-09-08T11:18:31.073Z,101505.84
2018-09-08T11:19:36.528Z,101504.94
2018-09-08T11:20:41.968Z,101504.31
2018-09-08T11:21:47.333Z,101516.95
2018-09-08T11:22:52.797Z,101513.99
2018-09-08T11:23:58.277Z,101511.53
2018-09-08T11:25:03.732Z,101506.12
2018-09-08T11:26:09.151Z,101507.92
2018-09-08T11:27:14.801Z,101514.64
2018-09-08T11:28:20.190Z,101510.23
2018-09-08T11:29:25.694Z,101512.06
2018-09-08T11:30:31.648Z,101511.80
2018-09-08T11:31:37.057Z,101511.25
2018-09-08T11:32:42.519Z,101515.74
2018-09-08T11:33:48.008Z,101516.56
2018-09-08T11:34:53.430Z,101519.76
2018-09-08T11:35:58.852Z,101518.70
2018-09-08T11:37:04.385Z,101515.56
2018-09-08T11:38:09.893Z,101512.34
2018-09-08T11:39:15.215Z,101513.95
2018-09-08T11:40:20.656Z,101511.61
2018-09-08T11:41:26.114Z,101515.45
2018-09-08T11:42:32.945Z,101514.69
2018-09-08T11:43:38.439Z,101515.64
2018-09-08T11:44:43.919Z,101516.55
2018-09-08T11:45:49.396Z,101516.40
2018-09-08T11:46:54.832Z,101520.91
2018-09-08T11:48:00.357Z,101520.67
2018-09-08T11:49:05.912Z,101519.44
2018-09-08T11:50:11.382Z,101527.50
2018-09-08T11:51:16.836Z,101526.20
2018-09-08T11:52:22.213Z,101525.48
2018-09-08T11:53:27.589Z,101523.90
2018-09-08T11:54:33.161Z,101519.16
2018-09-08T11:55:38.612Z,101520.11
2018-09-08T11:56:44.152Z,101519.84
2018-09-08T11:57:49.586Z,101524.29
2018-09-08T11:58:55.037Z,101526.70
2018-09-08T12:00:00.460Z,101519.05
2018-09-08T12:01:06.014Z,101529.67
2018-09-08T12:02:11.465Z,101525.04
2018-09-08T12:03:16.994Z,101527.52
2018-09-08T12:04:22.669Z,101525.50
2018-09-08T12:05:28.206Z,101528.91
2018-09-08T12:06:33.802Z,101527.19
2018-09-08T12:07:39.236Z,101530.42
2018-09-08T12:08:44.998Z,101525.52
2018-09-08T12:09:51.109Z,101532.83
2018-09-08T12:10:56.660Z,101519.16
2018-09-08T12:12:02.309Z,101528.80
2018-09-08T12:13:07.825Z,101525.63
2018-09-08T12:14:13.337Z,101524.39
2018-09-08T12:15:18.770Z,101526.09
2018-09-08T12:16:24.380Z,101526.16
2018-09-08T12:17:30.081Z,101527.42
2018-09-08T12:18:35.572Z,101518.84
2018-09-08T12:19:41.562Z,101529.44
2018-09-08T12:20:47.125Z,101521.73
2018-09-08T12:21:52.832Z,101525.39
2018-09-08T12:22:58.420Z,101523.05
2018-09-08T12:24:04.129Z,101525.44
2018-09-08T12:25:09.618Z,101520.31
2018-09-08T12:26:15.060Z,101524.06
2018-09-08T12:27:20.601Z,101521.27
2018-09-08T12:28:26.273Z,101521.91
2018-09-08T12:29:31.860Z,101522.30
2018-09-08T12:30:37.868Z,101522.03
2018-09-08T12:31:43.290Z,101519.58
2018-09-08T12:32:48.859Z,101526.38
2018-09-08T12:33:54.544Z,101522.93
2018-09-08T12:35:00.134Z,101518.44